Time;durP1;ratioP1;P1;durP2;ratioP2;P2;SDS_P1;SDS_P2;PMS_P1;PMS_P2;Temp;Humidity;BMP_temperature;BMP_pressure;BME280_temperature;BME280_humidity;BME280_pressure;Samples;Min_cycle;Max_cycle;Signal;HPM_P1;HPM_P2
2023/12/04 00:00:25;;;;;;;21.65;9.60;;;1.80;99.90;;;;;;5096061;28;20032;-88
2023/12/04 00:02:51;;;;;;;17.17;8.20;;;1.80;99.90;;;;;;5112846;28;20054;-87
2023/12/04 00:05:17;;;;;;;21.25;9.10;;;1.80;99.90;;;;;;5096063;28;20043;-87
2023/12/04 00:07:42;;;;;;;14.60;8.07;;;1.80;99.90;;;;;;5095546;28;20063;-87
2023/12/04 00:10:08;;;;;;;15.85;6.88;;;1.80;99.90;;;;;;5112803;28;20071;-87
2023/12/04 00:12:34;;;;;;;17.13;6.90;;;1.80;99.90;;;;;;5112678;28;20046;-87
2023/12/04 00:15:00;;;;;;;20.20;7.43;;;1.80;99.90;;;;;;5095829;28;20039;-87
2023/12/04 00:17:25;;;;;;;16.10;7.32;;;1.80;99.90;;;;;;5112722;28;20092;-87
2023/12/04 00:19:51;;;;;;;16.08;7.60;;;1.80;99.90;;;;;;5112954;28;20115;-88
2023/12/04 00:22:16;;;;;;;19.23;9.30;;;1.80;99.90;;;;;;5095025;28;20067;-87
2023/12/04 00:24:42;;;;;;;19.70;9.32;;;1.80;99.90;;;;;;5112249;28;20066;-87
2023/12/04 00:27:07;;;;;;;21.35;9.07;;;1.80;99.90;;;;;;5112468;28;20035;-88
2023/12/04 00:29:33;;;;;;;19.35;8.05;;;1.80;99.90;;;;;;5112748;28;20075;-88
2023/12/04 00:31:59;;;;;;;18.13;9.20;;;1.80;99.90;;;;;;5112450;28;20135;-86
2023/12/04 00:34:24;;;;;;;19.27;9.80;;;1.80;99.90;;;;;;5112249;28;20047;-86
2023/12/04 00:36:50;;;;;;;16.70;7.70;;;1.80;99.90;;;;;;5112276;28;20122;-86
2023/12/04 00:39:16;;;;;;;18.00;7.13;;;1.80;99.90;;;;;;5103418;27;20035;-86
2023/12/04 00:41:41;;;;;;;19.05;8.30;;;1.80;99.90;;;;;;5132999;27;20084;-86
2023/12/04 00:44:07;;;;;;;17.20;7.70;;;1.80;99.90;;;;;;5100344;28;20527;-86
2023/12/04 00:46:33;;;;;;;16.65;7.55;;;1.80;99.90;;;;;;5095011;28;20054;-86
2023/12/04 00:48:58;;;;;;;18.20;9.13;;;1.80;99.90;;;;;;5094703;28;20035;-86
2023/12/04 00:51:24;;;;;;;21.20;10.18;;;1.80;99.90;;;;;;5112109;28;20437;-86
2023/12/04 00:53:50;;;;;;;18.88;9.63;;;1.80;99.90;;;;;;5111891;28;20456;-86
2023/12/04 00:56:15;;;;;;;19.50;9.23;;;1.80;99.90;;;;;;5095355;28;20082;-86
2023/12/04 00:58:41;;;;;;;21.10;8.75;;;1.80;99.90;;;;;;5094853;28;20035;-86
2023/12/04 01:01:06;;;;;;;19.95;8.65;;;1.80;99.90;;;;;;5111904;28;20035;-87
2023/12/04 01:03:33;;;;;;;20.20;8.88;;;1.80;99.90;;;;;;5111330;28;20074;-87
2023/12/04 01:05:59;;;;;;;17.70;8.98;;;1.80;99.90;;;;;;5094481;28;20044;-87
2023/12/04 01:08:25;;;;;;;18.20;8.05;;;1.80;99.90;;;;;;5094588;28;20490;-87
2023/12/04 01:10:50;;;;;;;15.43;6.55;;;1.80;99.90;;;;;;5111904;28;20043;-87
2023/12/04 01:13:16;;;;;;;14.27;6.97;;;1.80;99.90;;;;;;5111770;28;20077;-87
2023/12/04 01:15:42;;;;;;;13.55;7.13;;;1.80;99.90;;;;;;5095937;28;20036;-87
2023/12/04 01:18:08;;;;;;;16.60;8.93;;;1.80;99.90;;;;;;5112550;28;20424;-87
2023/12/04 01:20:34;;;;;;;16.20;7.47;;;1.80;99.90;;;;;;5111216;28;20039;-87
2023/12/04 01:23:00;;;;;;;17.27;8.55;;;1.80;99.90;;;;;;5111307;28;20043;-88
2023/12/04 01:25:25;;;;;;;16.20;8.88;;;1.80;99.90;;;;;;5094016;28;20122;-87
2023/12/04 01:27:51;;;;;;;18.73;9.25;;;1.80;99.90;;;;;;5093525;28;20043;-87
2023/12/04 01:30:16;;;;;;;17.42;8.48;;;1.80;99.90;;;;;;5093723;28;20066;-87
2023/12/04 01:32:42;;;;;;;19.83;8.73;;;1.80;99.90;;;;;;5093887;28;20039;-87
2023/12/04 01:35:08;;;;;;;18.80;9.30;;;1.80;99.90;;;;;;5094201;28;20042;-88
2023/12/04 01:37:33;;;;;;;19.45;9.13;;;1.80;99.90;;;;;;5110808;28;20042;-87
2023/12/04 01:39:59;;;;;;;19.42;8.75;;;1.80;99.90;;;;;;5093728;28;20080;-87
2023/12/04 01:42:24;;;;;;;13.68;7.13;;;1.80;99.90;;;;;;5093897;28;20028;-87
2023/12/04 01:44:50;;;;;;;15.10;6.40;;;1.80;99.90;;;;;;5093996;28;20512;-87
2023/12/04 01:47:17;;;;;;;18.17;10.38;;;1.80;99.90;;;;;;5093819;28;20036;-87
2023/12/04 01:49:43;;;;;;;17.23;8.45;;;1.80;99.90;;;;;;5093340;28;20088;-87
2023/12/04 01:52:09;;;;;;;17.48;7.32;;;1.80;99.90;;;;;;5094014;28;20126;-87
2023/12/04 01:54:36;;;;;;;19.10;8.35;;;1.80;99.90;;;;;;5110787;28;20055;-87
2023/12/04 01:57:03;;;;;;;18.33;8.13;;;1.80;99.90;;;;;;5110883;28;20043;-87
2023/12/04 01:59:29;;;;;;;17.63;8.27;;;1.80;99.90;;;;;;5110587;28;20036;-87
2023/12/04 02:01:55;;;;;;;19.48;9.18;;;1.80;99.90;;;;;;5092616;28;20494;-87
2023/12/04 02:04:21;;;;;;;16.30;7.93;;;1.80;99.90;;;;;;5110392;28;20060;-87
2023/12/04 02:06:47;;;;;;;16.17;7.68;;;1.80;99.90;;;;;;5109841;28;20051;-87
2023/12/04 02:09:16;;;;;;;16.60;8.45;;;1.80;99.90;;;;;;5093161;28;20040;-87
2023/12/04 02:11:41;;;;;;;16.77;8.65;;;1.80;99.90;;;;;;5093162;28;20431;-87
2023/12/04 02:14:07;;;;;;;18.17;9.05;;;1.90;99.90;;;;;;5110326;28;20036;-87
2023/12/04 02:16:39;;;;;;;17.65;8.07;;;1.80;99.90;;;;;;5110685;28;20084;-87
2023/12/04 02:19:08;;;;;;;15.63;6.93;;;1.90;99.90;;;;;;5093550;28;20040;-87
2023/12/04 02:21:33;;;;;;;17.83;8.35;;;1.90;99.90;;;;;;5093205;28;20043;-87
2023/12/04 02:23:59;;;;;;;17.58;9.10;;;1.90;99.90;;;;;;5110270;28;20135;-87
2023/12/04 02:26:34;;;;;;;17.38;7.97;;;1.90;99.90;;;;;;5110192;28;20058;-87
2023/12/04 02:29:07;;;;;;;16.30;8.70;;;1.90;99.90;;;;;;5110240;28;20046;-87
2023/12/04 02:31:34;;;;;;;14.95;7.28;;;1.90;99.90;;;;;;5110456;28;20074;-87
2023/12/04 02:34:05;;;;;;;17.92;8.43;;;1.90;99.90;;;;;;5109887;28;20043;-87
2023/12/04 02:36:31;;;;;;;19.95;8.93;;;1.90;99.90;;;;;;5093377;28;20035;-87
2023/12/04 02:38:58;;;;;;;16.35;7.28;;;1.90;99.90;;;;;;5098358;28;20406;-87
2023/12/04 02:41:23;;;;;;;15.32;8.57;;;1.90;99.90;;;;;;5113499;28;20074;-88
2023/12/04 02:43:49;;;;;;;16.10;7.03;;;1.90;99.90;;;;;;5125992;27;20070;-87
2023/12/04 02:46:15;;;;;;;17.08;8.63;;;1.90;99.90;;;;;;5109378;28;20575;-87
2023/12/04 02:48:40;;;;;;;16.50;8.15;;;1.90;99.90;;;;;;5092438;28;20032;-87
2023/12/04 02:51:07;;;;;;;14.52;6.50;;;1.90;99.90;;;;;;5092438;28;20135;-87
2023/12/04 02:53:32;;;;;;;16.20;7.72;;;1.90;99.90;;;;;;5109428;28;20044;-87
2023/12/04 02:55:58;;;;;;;15.82;6.22;;;1.90;99.90;;;;;;5092828;28;20424;-87
2023/12/04 02:58:23;;;;;;;16.92;6.82;;;1.90;99.90;;;;;;5109479;28;20128;-87
2023/12/04 03:00:49;;;;;;;15.32;7.13;;;1.90;99.90;;;;;;5092824;28;20043;-87
2023/12/04 03:03:15;;;;;;;17.10;7.05;;;1.90;99.90;;;;;;5109283;28;20069;-87
2023/12/04 03:05:40;;;;;;;17.80;7.03;;;1.90;99.90;;;;;;5092664;28;20456;-87
2023/12/04 03:08:06;;;;;;;12.43;5.72;;;1.90;99.90;;;;;;5092788;28;20067;-87
2023/12/04 03:10:31;;;;;;;16.13;7.35;;;1.90;99.90;;;;;;5110012;28;20046;-87
2023/12/04 03:12:57;;;;;;;16.85;7.28;;;1.90;99.90;;;;;;5111830;28;20391;-87
2023/12/04 03:15:22;;;;;;;17.08;8.45;;;1.90;99.90;;;;;;5113778;28;20035;-87
2023/12/04 03:17:48;;;;;;;16.20;6.85;;;1.90;99.90;;;;;;5096652;28;20035;-87
2023/12/04 03:20:13;;;;;;;15.98;6.45;;;1.90;99.90;;;;;;5096669;28;20170;-88
2023/12/04 03:22:39;;;;;;;18.05;8.02;;;2.00;99.90;;;;;;5096705;28;20036;-88
2023/12/04 03:25:05;;;;;;;14.00;6.45;;;1.90;99.90;;;;;;5113711;28;20036;-87
2023/12/04 03:27:31;;;;;;;14.32;6.53;;;1.90;99.90;;;;;;5096075;28;20522;-87
2023/12/04 03:29:56;;;;;;;16.05;7.60;;;2.00;99.90;;;;;;5096404;28;20043;-88
2023/12/04 03:32:22;;;;;;;18.13;8.45;;;1.90;99.90;;;;;;5113738;28;20076;-87
2023/12/04 03:34:48;;;;;;;15.13;7.10;;;1.90;99.90;;;;;;5096317;28;20073;-88
2023/12/04 03:37:13;;;;;;;13.70;6.28;;;1.90;99.90;;;;;;5097218;28;20398;-88
2023/12/04 03:39:39;;;;;;;12.02;6.40;;;1.90;99.90;;;;;;5088888;28;20036;-88
2023/12/04 03:42:04;;;;;;;17.67;7.82;;;2.00;99.90;;;;;;5114293;28;20477;-88
2023/12/04 03:44:30;;;;;;;14.15;6.97;;;1.90;99.90;;;;;;5113033;28;20039;-88
2023/12/04 03:46:56;;;;;;;17.63;8.15;;;1.90;99.90;;;;;;5112694;28;20042;-87
2023/12/04 03:49:21;;;;;;;16.77;7.68;;;1.90;99.90;;;;;;5113481;28;20074;-88
2023/12/04 03:51:47;;;;;;;19.83;9.02;;;2.00;99.90;;;;;;5096086;28;20552;-87
2023/12/04 03:54:13;;;;;;;16.33;8.15;;;1.90;99.90;;;;;;5112802;28;20047;-88
2023/12/04 03:56:40;;;;;;;16.35;7.18;;;1.90;99.90;;;;;;5096142;28;20055;-88
2023/12/04 03:59:05;;;;;;;14.88;6.25;;;1.90;99.90;;;;;;5095498;28;20040;-87
2023/12/04 04:01:31;;;;;;;18.95;6.97;;;1.90;99.90;;;;;;5095878;28;20084;-88
2023/12/04 04:03:56;;;;;;;16.58;6.43;;;1.90;99.90;;;;;;5095860;28;20047;-87
2023/12/04 04:06:22;;;;;;;16.60;7.15;;;1.90;99.90;;;;;;5112970;28;20043;-88
2023/12/04 04:08:48;;;;;;;15.02;6.70;;;2.00;99.90;;;;;;5095280;28;20080;-88
2023/12/04 04:11:13;;;;;;;13.40;5.38;;;2.00;99.90;;;;;;5112473;28;20077;-86
2023/12/04 04:13:39;;;;;;;13.98;6.38;;;1.90;99.90;;;;;;5112633;28;20046;-87
2023/12/04 04:16:05;;;;;;;15.63;6.55;;;1.90;99.90;;;;;;5095814;28;20114;-87
2023/12/04 04:18:31;;;;;;;16.30;7.35;;;1.90;99.90;;;;;;5112826;28;20035;-87
2023/12/04 04:20:56;;;;;;;16.77;8.18;;;2.00;99.90;;;;;;5095634;28;20040;-87
2023/12/04 04:23:22;;;;;;;17.30;8.05;;;1.90;99.90;;;;;;5094775;28;20040;-87
2023/12/04 04:25:48;;;;;;;18.77;7.78;;;2.00;99.90;;;;;;5095095;28;20078;-87
2023/12/04 04:28:13;;;;;;;16.27;7.63;;;2.00;99.90;;;;;;5095779;28;20074;-87
2023/12/04 04:30:40;;;;;;;16.77;7.30;;;2.00;99.90;;;;;;5112459;28;20104;-87
2023/12/04 04:33:05;;;;;;;17.65;7.32;;;2.00;99.90;;;;;;5095603;28;20062;-87
2023/12/04 04:35:31;;;;;;;13.20;5.72;;;2.00;99.90;;;;;;5095279;28;20406;-88
2023/12/04 04:37:57;;;;;;;18.27;7.50;;;2.00;99.90;;;;;;5112371;28;20148;-87
2023/12/04 04:40:23;;;;;;;16.98;7.93;;;2.00;99.90;;;;;;5129242;27;20035;-87
2023/12/04 04:42:48;;;;;;;15.93;8.00;;;2.00;99.90;;;;;;5114716;27;20038;-87
2023/12/04 04:45:14;;;;;;;16.30;7.00;;;2.00;99.90;;;;;;5115292;27;20036;-87
2023/12/04 04:47:39;;;;;;;16.15;6.72;;;2.00;99.90;;;;;;5094060;28;20039;-87
2023/12/04 04:50:06;;;;;;;15.98;6.78;;;2.00;99.90;;;;;;5111630;28;20035;-87
2023/12/04 04:52:31;;;;;;;15.10;6.75;;;2.00;99.90;;;;;;5094816;28;20494;-87
2023/12/04 04:54:57;;;;;;;15.52;6.18;;;2.00;99.90;;;;;;5095131;28;20039;-87
2023/12/04 04:57:22;;;;;;;14.15;6.60;;;2.00;99.90;;;;;;5111936;28;20532;-87
2023/12/04 04:59:48;;;;;;;15.55;8.00;;;2.00;99.90;;;;;;5111924;28;20039;-87
2023/12/04 05:02:13;;;;;;;18.63;8.32;;;2.00;99.90;;;;;;5094423;28;20035;-87
2023/12/04 05:04:39;;;;;;;13.13;6.35;;;2.00;99.90;;;;;;5110685;28;20518;-87
2023/12/04 05:07:05;;;;;;;15.02;6.68;;;2.00;99.90;;;;;;5110762;28;20050;-87
2023/12/04 05:09:30;;;;;;;16.33;6.15;;;2.00;99.90;;;;;;5110260;28;20096;-88
2023/12/04 05:11:56;;;;;;;15.55;6.32;;;2.00;99.90;;;;;;5093850;28;20047;-88
2023/12/04 05:14:21;;;;;;;18.40;7.30;;;2.00;99.90;;;;;;5110359;28;20644;-88
2023/12/04 05:16:47;;;;;;;13.35;6.28;;;2.00;99.90;;;;;;5110763;28;20031;-88
2023/12/04 05:19:12;;;;;;;13.70;5.82;;;2.00;99.90;;;;;;5094704;28;20031;-88
2023/12/04 05:21:38;;;;;;;14.10;6.10;;;2.00;99.90;;;;;;5111327;28;20506;-88
2023/12/04 05:24:04;;;;;;;12.18;5.55;;;2.00;99.90;;;;;;5111035;28;20126;-88
2023/12/04 05:26:29;;;;;;;10.18;5.32;;;2.00;99.90;;;;;;5111178;28;20043;-88
2023/12/04 05:28:55;;;;;;;13.00;6.95;;;2.00;99.90;;;;;;5093926;28;20071;-88
2023/12/04 05:31:20;;;;;;;13.50;6.65;;;2.00;99.90;;;;;;5111485;28;20054;-88
2023/12/04 05:33:46;;;;;;;14.52;6.38;;;2.00;99.90;;;;;;5094008;28;20525;-88
2023/12/04 05:36:12;;;;;;;14.32;6.15;;;2.00;99.90;;;;;;5093250;28;20146;-88
2023/12/04 05:38:37;;;;;;;15.15;6.22;;;2.00;99.90;;;;;;5111044;28;20043;-88
2023/12/04 05:41:03;;;;;;;14.07;6.60;;;2.00;99.90;;;;;;5094083;28;20162;-89
2023/12/04 05:43:29;;;;;;;14.50;5.80;;;2.00;99.90;;;;;;5111010;28;20122;-88
2023/12/04 05:45:54;;;;;;;12.32;6.60;;;2.00;99.90;;;;;;5093292;28;20043;-89
2023/12/04 05:48:20;;;;;;;15.07;6.57;;;2.00;99.90;;;;;;5110486;28;20126;-89
2023/12/04 05:50:45;;;;;;;14.75;5.32;;;2.00;99.90;;;;;;5105106;28;20042;-88
2023/12/04 05:53:11;;;;;;;14.38;6.15;;;2.00;99.90;;;;;;5093844;28;20089;-89
2023/12/04 05:55:37;;;;;;;13.35;5.10;;;2.10;99.90;;;;;;5093432;28;20122;-88
2023/12/04 05:58:02;;;;;;;14.70;6.88;;;2.00;99.90;;;;;;5093813;28;20043;-88
2023/12/04 06:00:28;;;;;;;14.32;7.07;;;2.00;99.90;;;;;;5093916;28;20061;-88
2023/12/04 06:02:53;;;;;;;16.23;7.40;;;2.00;99.90;;;;;;5111250;28;20089;-88
2023/12/04 06:05:19;;;;;;;12.40;5.95;;;2.00;99.90;;;;;;5111153;28;20037;-88
2023/12/04 06:07:45;;;;;;;13.48;6.28;;;2.10;99.90;;;;;;5109945;28;20050;-86
2023/12/04 06:10:10;;;;;;;13.82;6.60;;;2.00;99.90;;;;;;5093141;28;20123;-87
2023/12/04 06:12:36;;;;;;;16.23;7.53;;;2.00;99.90;;;;;;5093293;28;20031;-87
2023/12/04 06:15:02;;;;;;;16.27;7.40;;;2.10;99.90;;;;;;5110221;28;20036;-88
2023/12/04 06:17:27;;;;;;;13.70;5.90;;;2.00;99.90;;;;;;5110368;28;20474;-88
2023/12/04 06:19:53;;;;;;;11.15;4.65;;;2.00;99.90;;;;;;5093539;28;20036;-88
2023/12/04 06:22:20;;;;;;;12.63;6.18;;;2.00;99.90;;;;;;5093246;28;20043;-88
2023/12/04 06:24:46;;;;;;;13.77;6.15;;;2.00;99.90;;;;;;5093388;28;20130;-87
2023/12/04 06:27:16;;;;;;;14.68;6.68;;;2.00;99.90;;;;;;5093391;28;20043;-88
2023/12/04 06:29:43;;;;;;;17.65;6.95;;;2.00;99.90;;;;;;5093277;28;20043;-87
2023/12/04 06:32:09;;;;;;;12.77;5.68;;;2.00;99.90;;;;;;5093054;28;20118;-87
2023/12/04 06:34:35;;;;;;;15.23;6.10;;;2.00;99.90;;;;;;5093191;28;20036;-86
2023/12/04 06:37:03;;;;;;;18.33;6.85;;;2.00;99.90;;;;;;5110292;28;20039;-87
2023/12/04 06:39:32;;;;;;;17.13;6.75;;;1.90;99.90;;;;;;5102966;27;20482;-87
2023/12/04 06:41:59;;;;;;;16.50;7.38;;;2.00;99.90;;;;;;5129681;27;20039;-86
2023/12/04 06:44:25;;;;;;;16.88;6.32;;;1.90;99.90;;;;;;5120589;27;20460;-86
2023/12/04 06:46:52;;;;;;;13.07;6.63;;;1.90;99.90;;;;;;5092797;28;20039;-86
2023/12/04 06:49:18;;;;;;;12.38;6.03;;;1.90;99.90;;;;;;5109973;28;20039;-87
2023/12/04 06:51:44;;;;;;;19.55;5.90;;;1.90;99.90;;;;;;5092424;28;20486;-87
2023/12/04 06:54:10;;;;;;;13.07;5.90;;;1.90;99.90;;;;;;5092083;28;20136;-86
2023/12/04 06:56:36;;;;;;;15.02;6.53;;;1.90;99.90;;;;;;5092968;28;20050;-88
2023/12/04 06:59:02;;;;;;;12.68;5.43;;;1.90;99.90;;;;;;5109930;28;20036;-86
2023/12/04 07:01:27;;;;;;;14.02;5.50;;;1.90;99.90;;;;;;5109894;28;20030;-86
2023/12/04 07:03:53;;;;;;;10.60;4.95;;;1.90;99.90;;;;;;5092198;28;20437;-86
2023/12/04 07:06:18;;;;;;;15.65;6.90;;;1.90;99.90;;;;;;5108234;28;20479;-86
2023/12/04 07:08:44;;;;;;;16.98;6.80;;;1.90;99.90;;;;;;5108622;28;20047;-86
2023/12/04 07:11:10;;;;;;;13.80;6.15;;;1.90;99.90;;;;;;5109134;28;20043;-86
2023/12/04 07:13:36;;;;;;;14.27;5.43;;;1.90;99.90;;;;;;5109414;28;20062;-86
2023/12/04 07:16:02;;;;;;;12.73;6.20;;;1.90;99.90;;;;;;5092925;28;20087;-86
2023/12/04 07:18:28;;;;;;;14.68;7.15;;;1.90;99.90;;;;;;5092565;28;20035;-86
2023/12/04 07:20:54;;;;;;;18.38;6.05;;;1.90;99.90;;;;;;5092004;28;20058;-86
2023/12/04 07:23:19;;;;;;;16.00;7.03;;;1.90;99.90;;;;;;5092724;28;20075;-86
2023/12/04 07:25:46;;;;;;;16.60;5.60;;;1.90;99.90;;;;;;5092847;28;20042;-86
2023/12/04 07:28:11;;;;;;;14.88;6.70;;;1.90;99.90;;;;;;5092116;28;20418;-86
2023/12/04 07:30:38;;;;;;;12.30;5.35;;;1.90;99.90;;;;;;5092232;28;20043;-86
2023/12/04 07:33:03;;;;;;;12.90;6.47;;;1.90;99.90;;;;;;5091929;28;20047;-86
2023/12/04 07:35:29;;;;;;;14.40;4.97;;;1.90;99.90;;;;;;5091901;28;20032;-87
2023/12/04 07:37:55;;;;;;;13.40;5.18;;;1.90;99.90;;;;;;5092417;28;20043;-87
2023/12/04 07:40:22;;;;;;;14.68;6.05;;;1.80;99.90;;;;;;5109200;28;20036;-87
2023/12/04 07:42:48;;;;;;;13.93;6.38;;;1.90;99.90;;;;;;5109618;28;20040;-87
2023/12/04 07:45:15;;;;;;;16.67;6.30;;;1.90;99.90;;;;;;5092257;28;20047;-87
2023/12/04 07:47:41;;;;;;;12.27;5.75;;;1.90;99.90;;;;;;5109512;28;20039;-87
2023/12/04 07:50:07;;;;;;;15.73;5.88;;;1.90;99.90;;;;;;5108392;28;20149;-88
2023/12/04 07:52:32;;;;;;;14.20;5.88;;;1.90;99.90;;;;;;5092272;28;20046;-88
2023/12/04 07:54:58;;;;;;;14.73;6.60;;;1.90;99.90;;;;;;5092548;28;20487;-88
2023/12/04 07:57:24;;;;;;;14.15;6.40;;;1.90;99.90;;;;;;5091718;28;20042;-87
2023/12/04 07:59:50;;;;;;;14.63;6.93;;;1.90;99.90;;;;;;5093507;28;20407;-88
2023/12/04 08:02:15;;;;;;;14.18;5.45;;;1.90;99.90;;;;;;5112364;28;20039;-87
2023/12/04 08:04:41;;;;;;;12.05;5.78;;;1.90;99.90;;;;;;5095102;28;20163;-87
2023/12/04 08:07:06;;;;;;;13.38;5.95;;;1.90;99.90;;;;;;5095922;28;20406;-87
2023/12/04 08:09:32;;;;;;;16.23;5.82;;;1.90;99.90;;;;;;5095682;28;20032;-87
2023/12/04 08:11:58;;;;;;;14.80;6.95;;;1.90;99.90;;;;;;5096079;28;20050;-87
2023/12/04 08:14:24;;;;;;;14.77;6.90;;;1.90;99.90;;;;;;5095394;28;20498;-87
2023/12/04 08:16:50;;;;;;;14.55;5.25;;;1.90;99.90;;;;;;5113361;28;20032;-87
2023/12/04 08:19:16;;;;;;;12.25;5.32;;;1.90;99.90;;;;;;5112779;28;20089;-87
2023/12/04 08:21:41;;;;;;;12.15;5.18;;;1.90;99.90;;;;;;5095620;28;20036;-87
2023/12/04 08:24:07;;;;;;;14.32;6.65;;;2.00;99.90;;;;;;5112559;28;20062;-87
2023/12/04 08:26:33;;;;;;;10.68;4.72;;;1.90;99.90;;;;;;5095381;28;20036;-87
2023/12/04 08:28:59;;;;;;;10.75;3.85;;;2.00;99.90;;;;;;5093630;28;20046;-87
2023/12/04 08:31:24;;;;;;;11.52;4.82;;;2.00;99.90;;;;;;5112271;28;20040;-87
2023/12/04 08:33:50;;;;;;;12.57;5.13;;;2.00;99.90;;;;;;5112161;28;20064;-87
2023/12/04 08:36:16;;;;;;;12.20;5.38;;;2.00;99.90;;;;;;5095654;28;20402;-87
2023/12/04 08:38:41;;;;;;;12.02;5.20;;;2.00;99.90;;;;;;5095448;28;20165;-86
2023/12/04 08:41:07;;;;;;;11.45;4.88;;;2.00;99.90;;;;;;5095449;28;20130;-87
2023/12/04 08:43:33;;;;;;;14.02;6.40;;;2.00;99.90;;;;;;5112286;28;20039;-87
2023/12/04 08:46:00;;;;;;;14.05;6.13;;;2.00;99.90;;;;;;5095368;28;20036;-87
2023/12/04 08:48:25;;;;;;;10.95;4.90;;;2.10;99.90;;;;;;5094930;28;20047;-87
2023/12/04 08:50:51;;;;;;;12.20;5.05;;;2.10;99.90;;;;;;5095555;28;20043;-87
2023/12/04 08:53:17;;;;;;;13.50;5.32;;;2.10;99.90;;;;;;5094951;28;20510;-87
2023/12/04 08:55:42;;;;;;;11.75;5.22;;;2.10;99.90;;;;;;5094942;28;20039;-87
2023/12/04 08:58:08;;;;;;;10.60;4.70;;;2.10;99.90;;;;;;5111271;28;20505;-87
2023/12/04 09:00:35;;;;;;;11.00;4.88;;;2.10;99.90;;;;;;5111736;28;20124;-87
2023/12/04 09:03:02;;;;;;;10.02;4.30;;;2.10;99.90;;;;;;5094656;28;20088;-87
2023/12/04 09:05:27;;;;;;;10.85;4.07;;;2.20;99.90;;;;;;5111991;28;20034;-87
2023/12/04 09:07:56;;;;;;;9.90;4.82;;;2.20;99.90;;;;;;5094775;28;20043;-87
2023/12/04 09:10:22;;;;;;;7.90;3.60;;;2.30;99.90;;;;;;5094238;28;20495;-87
2023/12/04 09:12:47;;;;;;;11.18;4.57;;;2.20;99.90;;;;;;5094751;28;20070;-87
2023/12/04 09:15:13;;;;;;;9.77;3.95;;;2.30;99.90;;;;;;5111516;28;20354;-87
2023/12/04 09:17:39;;;;;;;12.55;5.07;;;2.30;99.90;;;;;;5111526;28;20039;-87
2023/12/04 09:20:05;;;;;;;13.57;5.63;;;2.30;99.90;;;;;;5094459;28;20044;-87
2023/12/04 09:22:31;;;;;;;11.70;5.32;;;2.40;99.90;;;;;;5111457;28;20051;-87
2023/12/04 09:24:57;;;;;;;12.50;5.03;;;2.40;99.90;;;;;;5111372;28;20414;-87
2023/12/04 09:27:23;;;;;;;11.45;5.53;;;2.40;99.90;;;;;;5093916;28;20039;-87
2023/12/04 09:29:49;;;;;;;15.27;5.97;;;2.50;99.90;;;;;;5111183;28;20100;-87
2023/12/04 09:32:14;;;;;;;12.07;5.13;;;2.50;99.90;;;;;;5093779;28;20490;-87
2023/12/04 09:34:40;;;;;;;14.02;4.88;;;2.50;99.90;;;;;;5111395;28;20587;-87
2023/12/04 09:37:07;;;;;;;10.05;4.43;;;2.60;99.90;;;;;;5094534;28;20039;-87
2023/12/04 09:39:33;;;;;;;11.25;5.30;;;2.60;99.90;;;;;;5111043;28;20039;-87
2023/12/04 09:41:59;;;;;;;11.15;4.25;;;2.60;99.90;;;;;;5111025;28;20039;-87
2023/12/04 09:44:28;;;;;;;12.60;4.53;;;2.70;99.90;;;;;;5111060;28;20568;-87
2023/12/04 09:46:55;;;;;;;12.30;4.63;;;2.70;99.90;;;;;;5093069;28;20040;-87
2023/12/04 09:49:21;;;;;;;12.27;4.57;;;2.80;99.90;;;;;;5110306;28;20082;-86
2023/12/04 09:51:47;;;;;;;10.65;4.00;;;2.80;99.90;;;;;;5094050;28;20039;-86
2023/12/04 09:54:16;;;;;;;11.55;4.55;;;2.80;99.90;;;;;;5110608;28;20035;-86
2023/12/04 09:56:43;;;;;;;10.45;5.13;;;2.90;99.90;;;;;;5092945;28;20046;-87
2023/12/04 09:59:12;;;;;;;9.90;4.50;;;2.90;99.90;;;;;;5093217;28;20055;-86
2023/12/04 10:01:41;;;;;;;9.90;4.18;;;3.00;99.90;;;;;;5110096;28;20035;-88
2023/12/04 10:04:07;;;;;;;10.80;4.60;;;3.00;99.90;;;;;;5110345;28;20035;-88
2023/12/04 10:06:34;;;;;;;13.13;5.43;;;3.10;99.90;;;;;;5110337;28;20046;-87
2023/12/04 10:08:59;;;;;;;11.38;4.65;;;3.10;99.90;;;;;;5110791;28;20036;-87
2023/12/04 10:11:26;;;;;;;10.55;4.72;;;3.20;99.90;;;;;;5110472;28;20446;-87
2023/12/04 10:13:52;;;;;;;10.32;4.90;;;3.20;99.90;;;;;;5110581;28;20099;-86
2023/12/04 10:16:32;;;;;;;11.60;4.88;;;3.30;99.90;;;;;;5110796;28;20400;-87
2023/12/04 10:19:22;;;;;;;8.65;3.92;;;3.40;99.90;;;;;;5093250;28;20114;-87
2023/12/04 10:21:50;;;;;;;10.68;4.40;;;3.40;99.90;;;;;;5085360;28;20044;-87
2023/12/04 10:24:36;;;;;;;11.50;4.70;;;3.40;99.90;;;;;;5093250;28;20043;-87
2023/12/04 10:27:11;;;;;;;11.27;4.13;;;3.50;99.90;;;;;;5087663;28;20039;-87
2023/12/04 10:29:48;;;;;;;9.00;4.32;;;3.50;99.90;;;;;;5110011;28;20035;-87
2023/12/04 10:32:21;;;;;;;10.98;4.32;;;3.60;99.90;;;;;;5092590;28;20494;-86
2023/12/04 10:34:47;;;;;;;13.02;4.70;;;3.60;99.90;;;;;;5108623;28;20403;-87
2023/12/04 10:37:13;;;;;;;11.25;4.60;;;3.60;99.90;;;;;;5093024;28;20423;-87
2023/12/04 10:39:50;;;;;;;11.07;4.80;;;3.60;99.90;;;;;;5092772;28;20031;-85
2023/12/04 10:42:30;;;;;;;9.88;3.67;;;3.70;99.90;;;;;;5092694;28;20032;-87
2023/12/04 10:44:57;;;;;;;10.02;3.90;;;3.70;99.90;;;;;;5094298;28;20406;-87
2023/12/04 10:47:23;;;;;;;13.65;5.22;;;3.70;99.90;;;;;;5094017;28;20092;-87
2023/12/04 10:49:52;;;;;;;11.00;4.47;;;3.70;99.90;;;;;;5109956;28;20444;-87
2023/12/04 10:52:22;;;;;;;11.13;4.50;;;3.70;99.90;;;;;;5091344;28;20459;-87
2023/12/04 10:54:48;;;;;;;13.30;4.55;;;3.70;99.90;;;;;;5091179;28;20039;-87
2023/12/04 10:57:21;;;;;;;9.70;4.10;;;3.70;99.90;;;;;;5109598;28;20035;-87
2023/12/04 10:59:48;;;;;;;9.02;3.08;;;3.70;99.90;;;;;;5092143;28;20035;-87
2023/12/04 11:02:20;;;;;;;6.13;2.85;;;3.70;99.90;;;;;;5109284;28;20039;-87
2023/12/04 11:04:50;;;;;;;9.77;4.28;;;3.60;99.90;;;;;;5093129;28;20031;-87
2023/12/04 11:07:17;;;;;;;10.20;3.60;;;3.70;99.90;;;;;;5092741;28;20054;-87
2023/12/04 11:09:43;;;;;;;8.68;3.47;;;3.60;99.90;;;;;;5092738;28;20088;-87
2023/12/04 11:12:13;;;;;;;10.68;3.72;;;3.60;99.90;;;;;;5091968;28;20039;-87
2023/12/04 11:14:50;;;;;;;10.10;4.60;;;3.60;99.90;;;;;;5092461;28;20035;-87
2023/12/04 11:17:18;;;;;;;12.38;5.10;;;3.60;99.90;;;;;;5092715;28;20038;-86
2023/12/04 11:19:57;;;;;;;9.77;4.35;;;3.60;99.90;;;;;;5092227;28;20027;-87
2023/12/04 11:22:25;;;;;;;10.35;4.65;;;3.60;99.90;;;;;;5109654;28;20039;-86
2023/12/04 11:24:51;;;;;;;12.20;4.65;;;3.60;99.90;;;;;;5109892;28;20092;-87
2023/12/04 11:27:18;;;;;;;11.18;4.30;;;3.60;99.90;;;;;;5109840;28;20050;-87
2023/12/04 11:29:46;;;;;;;9.52;3.65;;;3.60;99.90;;;;;;5088776;28;20052;-86
2023/12/04 11:32:16;;;;;;;7.95;3.40;;;3.60;99.90;;;;;;5122204;28;20043;-86
2023/12/04 11:34:55;;;;;;;10.95;4.75;;;3.60;99.90;;;;;;5095931;28;20036;-87
2023/12/04 11:37:23;;;;;;;12.32;4.50;;;3.60;99.90;;;;;;5114219;28;20406;-86
2023/12/04 11:39:50;;;;;;;10.18;4.00;;;3.70;99.90;;;;;;5113890;28;20126;-87
2023/12/04 11:42:20;;;;;;;10.77;4.43;;;3.70;99.90;;;;;;5095998;28;20066;-88
2023/12/04 11:44:48;;;;;;;11.18;4.70;;;3.70;99.90;;;;;;5088410;28;20085;-88
2023/12/04 11:47:14;;;;;;;9.27;4.15;;;3.70;99.90;;;;;;5096584;28;20086;-88
2023/12/04 11:49:39;;;;;;;11.80;4.80;;;3.70;99.90;;;;;;5113472;28;20067;-88
2023/12/04 11:52:06;;;;;;;10.13;5.10;;;3.70;99.90;;;;;;5096485;28;20088;-88
2023/12/04 11:55:04;;;;;;;12.23;4.45;;;3.80;99.90;;;;;;5096281;28;20460;-88
2023/12/04 11:57:34;;;;;;;9.43;3.67;;;3.80;99.90;;;;;;5113290;28;20119;-87
2023/12/04 12:00:23;;;;;;;8.70;3.83;;;3.80;99.90;;;;;;5112786;28;20075;-88
2023/12/04 12:02:54;;;;;;;10.55;3.50;;;3.80;99.90;;;;;;5096459;28;20035;-88
2023/12/04 12:05:21;;;;;;;11.98;4.45;;;3.80;99.90;;;;;;5095986;28;20104;-88
2023/12/04 12:07:47;;;;;;;10.00;4.30;;;3.90;99.90;;;;;;5113173;28;20039;-88
2023/12/04 12:10:13;;;;;;;11.73;4.82;;;3.90;99.90;;;;;;5096130;28;20051;-87
2023/12/04 12:12:45;;;;;;;9.80;4.60;;;3.90;99.90;;;;;;5113016;28;20151;-88
2023/12/04 12:15:11;;;;;;;9.20;3.78;;;3.90;99.90;;;;;;5096007;28;20085;-88
2023/12/04 12:17:38;;;;;;;10.55;3.58;;;3.90;99.90;;;;;;5113300;28;20395;-88
2023/12/04 12:20:06;;;;;;;10.65;4.38;;;3.90;99.90;;;;;;5112902;28;20043;-88
2023/12/04 12:22:33;;;;;;;7.70;3.67;;;3.90;99.90;;;;;;5095254;28;20027;-88
2023/12/04 12:25:00;;;;;;;6.15;2.20;;;3.90;99.90;;;;;;5094248;28;20096;-87
2023/12/04 12:27:25;;;;;;;9.25;3.88;;;3.90;99.90;;;;;;5095363;28;20040;-88
2023/12/04 12:29:51;;;;;;;9.32;3.60;;;3.90;99.90;;;;;;5112427;28;20047;-88
2023/12/04 12:32:17;;;;;;;10.65;3.78;;;3.90;99.90;;;;;;5095765;28;20035;-87
2023/12/04 12:34:42;;;;;;;8.75;3.55;;;3.80;99.90;;;;;;5112637;28;20039;-88
2023/12/04 12:37:09;;;;;;;12.75;4.57;;;3.90;99.90;;;;;;5095690;28;20039;-87
2023/12/04 12:39:35;;;;;;;11.68;4.38;;;3.90;99.90;;;;;;5112300;28;20073;-88
2023/12/04 12:42:04;;;;;;;11.70;4.20;;;3.90;99.90;;;;;;5094113;28;20152;-88
2023/12/04 12:44:39;;;;;;;10.98;4.57;;;3.80;99.90;;;;;;5093984;28;20042;-88